sensor_id;sensor_type;location;lat;lon;timestamp;temperature;humidity
13606;DHT22;6874;52.084;5.090;2022-08-21T00:01:06;18.40;74.30
13606;DHT22;6874;52.084;5.090;2022-08-21T00:03:34;18.40;74.40
13606;DHT22;6874;52.084;5.090;2022-08-21T00:06:00;18.40;74.40
13606;DHT22;6874;52.084;5.090;2022-08-21T00:08:26;18.30;74.40
13606;DHT22;6874;52.084;5.090;2022-08-21T00:10:51;18.30;74.20
13606;DHT22;6874;52.084;5.090;2022-08-21T00:13:17;18.30;74.40
13606;DHT22;6874;52.084;5.090;2022-08-21T00:15:45;18.30;74.20
13606;DHT22;6874;52.084;5.090;2022-08-21T00:18:11;18.30;74.40
13606;DHT22;6874;52.084;5.090;2022-08-21T00:20:38;18.20;74.40
13606;DHT22;6874;52.084;5.090;2022-08-21T00:23:04;18.20;74.40
13606;DHT22;6874;52.084;5.090;2022-08-21T00:25:30;18.20;74.50
13606;DHT22;6874;52.084;5.090;2022-08-21T00:27:56;18.20;74.70
13606;DHT22;6874;52.084;5.090;2022-08-21T00:30:24;18.20;74.70
13606;DHT22;6874;52.084;5.090;2022-08-21T00:32:53;18.10;74.50
13606;DHT22;6874;52.084;5.090;2022-08-21T00:35:22;18.20;74.50
13606;DHT22;6874;52.084;5.090;2022-08-21T00:37:48;18.10;74.80
13606;DHT22;6874;52.084;5.090;2022-08-21T00:40:17;18.10;74.80
13606;DHT22;6874;52.084;5.090;2022-08-21T00:42:43;18.00;74.70
13606;DHT22;6874;52.084;5.090;2022-08-21T00:45:10;18.00;74.80
13606;DHT22;6874;52.084;5.090;2022-08-21T00:47:36;18.00;74.60
13606;DHT22;6874;52.084;5.090;2022-08-21T00:50:04;18.00;74.70
13606;DHT22;6874;52.084;5.090;2022-08-21T00:52:32;18.00;74.80
13606;DHT22;6874;52.084;5.090;2022-08-21T00:55:00;18.00;74.80
13606;DHT22;6874;52.084;5.090;2022-08-21T00:57:29;18.00;74.90
13606;DHT22;6874;52.084;5.090;2022-08-21T00:59:57;18.00;74.60
13606;DHT22;6874;52.084;5.090;2022-08-21T01:02:24;17.90;74.80
13606;DHT22;6874;52.084;5.090;2022-08-21T01:04:50;17.90;74.70
13606;DHT22;6874;52.084;5.090;2022-08-21T01:07:15;17.90;74.70
13606;DHT22;6874;52.084;5.090;2022-08-21T01:09:41;17.80;74.80
13606;DHT22;6874;52.084;5.090;2022-08-21T01:12:07;17.90;74.70
13606;DHT22;6874;52.084;5.090;2022-08-21T01:14:34;17.80;74.80
13606;DHT22;6874;52.084;5.090;2022-08-21T01:17:00;17.80;74.90
13606;DHT22;6874;52.084;5.090;2022-08-21T01:19:28;17.80;75.00
13606;DHT22;6874;52.084;5.090;2022-08-21T01:21:54;17.80;75.00
13606;DHT22;6874;52.084;5.090;2022-08-21T01:24:20;17.80;74.90
13606;DHT22;6874;52.084;5.090;2022-08-21T01:26:48;17.80;74.80
13606;DHT22;6874;52.084;5.090;2022-08-21T01:29:32;17.70;74.80
13606;DHT22;6874;52.084;5.090;2022-08-21T01:32:04;17.70;74.90
13606;DHT22;6874;52.084;5.090;2022-08-21T01:34:31;17.70;75.00
13606;DHT22;6874;52.084;5.090;2022-08-21T01:36:57;17.70;75.00
13606;DHT22;6874;52.084;5.090;2022-08-21T01:39:23;17.60;74.70
13606;DHT22;6874;52.084;5.090;2022-08-21T01:41:48;17.60;74.70
13606;DHT22;6874;52.084;5.090;2022-08-21T01:44:14;17.60;75.10
13606;DHT22;6874;52.084;5.090;2022-08-21T01:46:39;17.60;75.10
13606;DHT22;6874;52.084;5.090;2022-08-21T01:49:06;17.60;75.20
13606;DHT22;6874;52.084;5.090;2022-08-21T01:51:32;17.60;75.10
13606;DHT22;6874;52.084;5.090;2022-08-21T01:53:57;17.50;74.90
13606;DHT22;6874;52.084;5.090;2022-08-21T01:56:24;17.50;75.40
13606;DHT22;6874;52.084;5.090;2022-08-21T01:58:51;17.50;75.10
13606;DHT22;6874;52.084;5.090;2022-08-21T02:01:16;17.50;75.10
13606;DHT22;6874;52.084;5.090;2022-08-21T02:03:42;17.50;75.40
13606;DHT22;6874;52.084;5.090;2022-08-21T02:06:13;17.50;75.20
13606;DHT22;6874;52.084;5.090;2022-08-21T02:08:39;17.40;75.30
13606;DHT22;6874;52.084;5.090;2022-08-21T02:11:04;17.40;75.10
13606;DHT22;6874;52.084;5.090;2022-08-21T02:13:30;17.40;75.10
13606;DHT22;6874;52.084;5.090;2022-08-21T02:15:55;17.40;75.30
13606;DHT22;6874;52.084;5.090;2022-08-21T02:18:21;17.40;75.30
13606;DHT22;6874;52.084;5.090;2022-08-21T02:20:48;17.40;75.50
13606;DHT22;6874;52.084;5.090;2022-08-21T02:23:15;17.30;75.40
13606;DHT22;6874;52.084;5.090;2022-08-21T02:25:40;17.30;75.10
13606;DHT22;6874;52.084;5.090;2022-08-21T02:28:10;17.30;75.50
13606;DHT22;6874;52.084;5.090;2022-08-21T02:30:41;17.30;75.40
13606;DHT22;6874;52.084;5.090;2022-08-21T02:33:07;17.30;75.50
13606;DHT22;6874;52.084;5.090;2022-08-21T02:35:33;17.20;75.50
13606;DHT22;6874;52.084;5.090;2022-08-21T02:38:02;17.20;75.50
13606;DHT22;6874;52.084;5.090;2022-08-21T02:40:31;17.20;75.60
13606;DHT22;6874;52.084;5.090;2022-08-21T02:42:58;17.20;75.70
13606;DHT22;6874;52.084;5.090;2022-08-21T02:45:24;17.20;75.60
13606;DHT22;6874;52.084;5.090;2022-08-21T02:47:55;17.10;75.50
13606;DHT22;6874;52.084;5.090;2022-08-21T02:50:28;17.10;75.50
13606;DHT22;6874;52.084;5.090;2022-08-21T02:52:54;17.20;75.80
13606;DHT22;6874;52.084;5.090;2022-08-21T02:55:21;17.20;75.60
13606;DHT22;6874;52.084;5.090;2022-08-21T02:57:48;17.10;75.70
13606;DHT22;6874;52.084;5.090;2022-08-21T03:00:14;17.10;76.00
13606;DHT22;6874;52.084;5.090;2022-08-21T03:02:41;17.10;75.80
13606;DHT22;6874;52.084;5.090;2022-08-21T03:05:08;17.00;75.80
13606;DHT22;6874;52.084;5.090;2022-08-21T03:07:35;17.00;75.80
13606;DHT22;6874;52.084;5.090;2022-08-21T03:10:01;17.00;75.70
13606;DHT22;6874;52.084;5.090;2022-08-21T03:12:27;17.00;75.90
13606;DHT22;6874;52.084;5.090;2022-08-21T03:14:52;17.00;75.90
13606;DHT22;6874;52.084;5.090;2022-08-21T03:17:18;17.00;76.00
13606;DHT22;6874;52.084;5.090;2022-08-21T03:19:43;17.00;75.80
13606;DHT22;6874;52.084;5.090;2022-08-21T03:22:09;16.90;75.80
13606;DHT22;6874;52.084;5.090;2022-08-21T03:24:34;17.00;76.00
13606;DHT22;6874;52.084;5.090;2022-08-21T03:27:00;16.90;76.00
13606;DHT22;6874;52.084;5.090;2022-08-21T03:29:25;16.90;76.00
13606;DHT22;6874;52.084;5.090;2022-08-21T03:31:52;16.90;76.10
13606;DHT22;6874;52.084;5.090;2022-08-21T03:34:20;16.90;76.10
13606;DHT22;6874;52.084;5.090;2022-08-21T03:36:47;16.90;76.10
13606;DHT22;6874;52.084;5.090;2022-08-21T03:39:15;16.80;76.30
13606;DHT22;6874;52.084;5.090;2022-08-21T03:41:40;16.80;76.10
13606;DHT22;6874;52.084;5.090;2022-08-21T03:44:06;16.80;76.20
13606;DHT22;6874;52.084;5.090;2022-08-21T03:46:32;16.80;76.30
13606;DHT22;6874;52.084;5.090;2022-08-21T03:48:57;16.80;76.30
13606;DHT22;6874;52.084;5.090;2022-08-21T03:51:23;16.80;76.30
13606;DHT22;6874;52.084;5.090;2022-08-21T03:53:48;16.80;76.40
13606;DHT22;6874;52.084;5.090;2022-08-21T03:56:14;16.80;76.40
13606;DHT22;6874;52.084;5.090;2022-08-21T03:58:41;16.70;76.30
13606;DHT22;6874;52.084;5.090;2022-08-21T04:01:07;16.70;76.30
13606;DHT22;6874;52.084;5.090;2022-08-21T04:03:34;16.70;76.30
13606;DHT22;6874;52.084;5.090;2022-08-21T04:06:00;16.70;76.50
13606;DHT22;6874;52.084;5.090;2022-08-21T04:08:26;16.70;76.50
13606;DHT22;6874;52.084;5.090;2022-08-21T04:10:54;16.60;76.60
13606;DHT22;6874;52.084;5.090;2022-08-21T04:13:21;16.60;77.40
13606;DHT22;6874;52.084;5.090;2022-08-21T04:15:47;16.60;76.40
13606;DHT22;6874;52.084;5.090;2022-08-21T04:18:13;16.60;76.40
13606;DHT22;6874;52.084;5.090;2022-08-21T04:20:41;16.60;76.70
13606;DHT22;6874;52.084;5.090;2022-08-21T04:23:07;16.60;76.70
13606;DHT22;6874;52.084;5.090;2022-08-21T04:25:33;16.60;76.70
13606;DHT22;6874;52.084;5.090;2022-08-21T04:27:59;16.60;76.50
13606;DHT22;6874;52.084;5.090;2022-08-21T04:30:24;16.50;76.50
13606;DHT22;6874;52.084;5.090;2022-08-21T04:32:51;16.50;76.50
13606;DHT22;6874;52.084;5.090;2022-08-21T04:35:19;16.50;76.80
13606;DHT22;6874;52.084;5.090;2022-08-21T04:37:45;16.50;76.80
13606;DHT22;6874;52.084;5.090;2022-08-21T04:40:13;16.50;76.80
13606;DHT22;6874;52.084;5.090;2022-08-21T04:43:03;16.50;76.90
13606;DHT22;6874;52.084;5.090;2022-08-21T04:45:39;16.50;77.60
13606;DHT22;6874;52.084;5.090;2022-08-21T04:48:07;16.50;76.90
13606;DHT22;6874;52.084;5.090;2022-08-21T04:50:37;16.50;76.80
13606;DHT22;6874;52.084;5.090;2022-08-21T04:53:05;16.40;76.80
13606;DHT22;6874;52.084;5.090;2022-08-21T04:55:32;16.40;76.80
13606;DHT22;6874;52.084;5.090;2022-08-21T04:57:58;16.40;76.80
13606;DHT22;6874;52.084;5.090;2022-08-21T05:00:24;16.40;76.90
13606;DHT22;6874;52.084;5.090;2022-08-21T05:02:51;16.40;77.00
13606;DHT22;6874;52.084;5.090;2022-08-21T05:05:19;16.40;77.30
13606;DHT22;6874;52.084;5.090;2022-08-21T05:07:45;16.30;76.80
13606;DHT22;6874;52.084;5.090;2022-08-21T05:10:13;16.30;76.90
13606;DHT22;6874;52.084;5.090;2022-08-21T05:12:43;16.40;77.10
13606;DHT22;6874;52.084;5.090;2022-08-21T05:15:10;16.40;77.20
13606;DHT22;6874;52.084;5.090;2022-08-21T05:17:40;16.30;77.10
13606;DHT22;6874;52.084;5.090;2022-08-21T05:20:06;16.30;77.30
13606;DHT22;6874;52.084;5.090;2022-08-21T05:22:32;16.30;77.40
13606;DHT22;6874;52.084;5.090;2022-08-21T05:24:58;16.30;77.40
13606;DHT22;6874;52.084;5.090;2022-08-21T05:27:23;16.30;77.60
13606;DHT22;6874;52.084;5.090;2022-08-21T05:29:49;16.30;77.80
13606;DHT22;6874;52.084;5.090;2022-08-21T05:32:14;16.30;77.40
13606;DHT22;6874;52.084;5.090;2022-08-21T05:34:40;16.30;78.00
13606;DHT22;6874;52.084;5.090;2022-08-21T05:37:06;16.30;78.00
13606;DHT22;6874;52.084;5.090;2022-08-21T05:39:32;16.30;77.70
13606;DHT22;6874;52.084;5.090;2022-08-21T05:41:57;16.30;77.70
13606;DHT22;6874;52.084;5.090;2022-08-21T05:44:23;16.30;78.20
13606;DHT22;6874;52.084;5.090;2022-08-21T05:46:48;16.30;78.30
13606;DHT22;6874;52.084;5.090;2022-08-21T05:49:14;16.30;78.00
13606;DHT22;6874;52.084;5.090;2022-08-21T05:51:41;16.30;78.00
13606;DHT22;6874;52.084;5.090;2022-08-21T05:54:07;16.30;78.20
13606;DHT22;6874;52.084;5.090;2022-08-21T05:56:33;16.30;78.10
13606;DHT22;6874;52.084;5.090;2022-08-21T05:58:58;16.30;77.80
13606;DHT22;6874;52.084;5.090;2022-08-21T06:01:24;16.30;78.50
13606;DHT22;6874;52.084;5.090;2022-08-21T06:03:50;16.30;78.60
13606;DHT22;6874;52.084;5.090;2022-08-21T06:06:16;16.30;78.50
13606;DHT22;6874;52.084;5.090;2022-08-21T06:08:42;16.30;78.50
13606;DHT22;6874;52.084;5.090;2022-08-21T06:11:08;16.30;78.70
13606;DHT22;6874;52.084;5.090;2022-08-21T06:13:35;16.30;78.90
13606;DHT22;6874;52.084;5.090;2022-08-21T06:16:10;16.40;79.20
13606;DHT22;6874;52.084;5.090;2022-08-21T06:18:37;16.30;78.60
13606;DHT22;6874;52.084;5.090;2022-08-21T06:21:03;16.30;79.20
13606;DHT22;6874;52.084;5.090;2022-08-21T06:23:29;16.30;79.50
13606;DHT22;6874;52.084;5.090;2022-08-21T06:25:55;16.30;79.30
13606;DHT22;6874;52.084;5.090;2022-08-21T06:28:20;16.30;79.40
13606;DHT22;6874;52.084;5.090;2022-08-21T06:30:46;16.30;79.30
13606;DHT22;6874;52.084;5.090;2022-08-21T06:33:11;16.40;79.80
13606;DHT22;6874;52.084;5.090;2022-08-21T06:35:37;16.40;80.00
13606;DHT22;6874;52.084;5.090;2022-08-21T06:38:03;16.40;80.10
13606;DHT22;6874;52.084;5.090;2022-08-21T06:40:29;16.40;80.00
13606;DHT22;6874;52.084;5.090;2022-08-21T06:42:56;16.40;80.00
13606;DHT22;6874;52.084;5.090;2022-08-21T06:45:22;16.40;79.90
13606;DHT22;6874;52.084;5.090;2022-08-21T06:47:47;16.40;80.70
13606;DHT22;6874;52.084;5.090;2022-08-21T06:50:13;16.50;80.70
13606;DHT22;6874;52.084;5.090;2022-08-21T06:52:39;16.40;80.70
13606;DHT22;6874;52.084;5.090;2022-08-21T06:55:07;16.50;81.00
13606;DHT22;6874;52.084;5.090;2022-08-21T06:57:33;16.50;81.50
13606;DHT22;6874;52.084;5.090;2022-08-21T06:59:58;16.50;81.70
13606;DHT22;6874;52.084;5.090;2022-08-21T07:02:24;16.50;81.20
13606;DHT22;6874;52.084;5.090;2022-08-21T07:04:49;16.50;81.50
13606;DHT22;6874;52.084;5.090;2022-08-21T07:07:16;16.50;81.60
13606;DHT22;6874;52.084;5.090;2022-08-21T07:09:41;16.50;81.40
13606;DHT22;6874;52.084;5.090;2022-08-21T07:12:07;16.60;81.90
13606;DHT22;6874;52.084;5.090;2022-08-21T07:14:33;16.60;81.80
13606;DHT22;6874;52.084;5.090;2022-08-21T07:16:59;16.60;82.30
13606;DHT22;6874;52.084;5.090;2022-08-21T07:19:24;16.60;82.80
13606;DHT22;6874;52.084;5.090;2022-08-21T07:21:50;16.70;83.00
13606;DHT22;6874;52.084;5.090;2022-08-21T07:24:16;16.70;82.70
13606;DHT22;6874;52.084;5.090;2022-08-21T07:26:41;16.70;82.80
13606;DHT22;6874;52.084;5.090;2022-08-21T07:29:07;16.70;83.30
13606;DHT22;6874;52.084;5.090;2022-08-21T07:31:32;16.80;83.80
13606;DHT22;6874;52.084;5.090;2022-08-21T07:33:58;16.80;83.80
13606;DHT22;6874;52.084;5.090;2022-08-21T07:36:24;16.80;85.50
13606;DHT22;6874;52.084;5.090;2022-08-21T07:38:49;16.80;84.10
13606;DHT22;6874;52.084;5.090;2022-08-21T07:41:18;16.90;84.50
13606;DHT22;6874;52.084;5.090;2022-08-21T07:43:44;17.00;85.10
13606;DHT22;6874;52.084;5.090;2022-08-21T07:46:10;17.00;85.00
13606;DHT22;6874;52.084;5.090;2022-08-21T07:48:37;17.00;85.10
13606;DHT22;6874;52.084;5.090;2022-08-21T07:51:09;17.10;84.70
13606;DHT22;6874;52.084;5.090;2022-08-21T07:53:36;17.20;84.90
13606;DHT22;6874;52.084;5.090;2022-08-21T07:56:03;17.20;85.00
13606;DHT22;6874;52.084;5.090;2022-08-21T07:58:31;17.20;85.10
13606;DHT22;6874;52.084;5.090;2022-08-21T08:00:57;17.20;85.30
13606;DHT22;6874;52.084;5.090;2022-08-21T08:03:23;17.30;85.50
13606;DHT22;6874;52.084;5.090;2022-08-21T08:05:49;17.30;85.70
13606;DHT22;6874;52.084;5.090;2022-08-21T08:08:14;17.40;85.90
13606;DHT22;6874;52.084;5.090;2022-08-21T08:13:16;17.50;87.80
13606;DHT22;6874;52.084;5.090;2022-08-21T08:15:41;17.60;87.40
13606;DHT22;6874;52.084;5.090;2022-08-21T08:18:07;17.60;87.20
13606;DHT22;6874;52.084;5.090;2022-08-21T08:20:33;17.60;86.20
13606;DHT22;6874;52.084;5.090;2022-08-21T08:22:58;17.70;86.60
13606;DHT22;6874;52.084;5.090;2022-08-21T08:25:25;17.80;87.30
13606;DHT22;6874;52.084;5.090;2022-08-21T08:27:51;17.90;87.50
13606;DHT22;6874;52.084;5.090;2022-08-21T08:30:19;17.90;89.00
13606;DHT22;6874;52.084;5.090;2022-08-21T08:32:45;18.00;88.10
13606;DHT22;6874;52.084;5.090;2022-08-21T08:35:12;18.10;88.80
13606;DHT22;6874;52.084;5.090;2022-08-21T08:37:38;18.10;88.60
13606;DHT22;6874;52.084;5.090;2022-08-21T08:40:10;18.20;89.20
13606;DHT22;6874;52.084;5.090;2022-08-21T08:42:37;18.20;88.80
13606;DHT22;6874;52.084;5.090;2022-08-21T08:47:36;18.40;90.30
13606;DHT22;6874;52.084;5.090;2022-08-21T08:50:27;18.50;90.60
13606;DHT22;6874;52.084;5.090;2022-08-21T08:53:00;18.50;90.00
13606;DHT22;6874;52.084;5.090;2022-08-21T08:55:42;18.60;90.00
13606;DHT22;6874;52.084;5.090;2022-08-21T08:58:25;18.70;90.30
13606;DHT22;6874;52.084;5.090;2022-08-21T09:00:54;18.70;90.00
13606;DHT22;6874;52.084;5.090;2022-08-21T09:03:24;18.80;90.30
13606;DHT22;6874;52.084;5.090;2022-08-21T09:06:12;18.80;90.60
13606;DHT22;6874;52.084;5.090;2022-08-21T09:09:17;18.90;90.20
13606;DHT22;6874;52.084;5.090;2022-08-21T09:12:00;19.00;90.00
13606;DHT22;6874;52.084;5.090;2022-08-21T09:14:42;19.00;90.00
13606;DHT22;6874;52.084;5.090;2022-08-21T09:17:39;19.10;90.00
13606;DHT22;6874;52.084;5.090;2022-08-21T09:26:12;19.40;90.30
13606;DHT22;6874;52.084;5.090;2022-08-21T09:28:38;19.50;90.20
13606;DHT22;6874;52.084;5.090;2022-08-21T09:31:08;19.50;90.30
13606;DHT22;6874;52.084;5.090;2022-08-21T09:33:37;19.60;90.10
13606;DHT22;6874;52.084;5.090;2022-08-21T09:36:03;19.70;90.20
13606;DHT22;6874;52.084;5.090;2022-08-21T09:38:30;19.80;90.20
13606;DHT22;6874;52.084;5.090;2022-08-21T09:41:09;19.90;90.30
13606;DHT22;6874;52.084;5.090;2022-08-21T09:43:36;19.90;90.10
13606;DHT22;6874;52.084;5.090;2022-08-21T09:48:39;20.10;89.70
13606;DHT22;6874;52.084;5.090;2022-08-21T09:51:10;20.20;89.60
13606;DHT22;6874;52.084;5.090;2022-08-21T09:53:39;20.30;89.60
13606;DHT22;6874;52.084;5.090;2022-08-21T09:56:29;20.40;90.30
13606;DHT22;6874;52.084;5.090;2022-08-21T09:59:20;20.40;90.00
13606;DHT22;6874;52.084;5.090;2022-08-21T10:01:49;20.50;89.40
13606;DHT22;6874;52.084;5.090;2022-08-21T10:04:20;20.70;89.00
13606;DHT22;6874;52.084;5.090;2022-08-21T10:06:48;20.70;90.00
13606;DHT22;6874;52.084;5.090;2022-08-21T10:09:17;20.80;90.30
13606;DHT22;6874;52.084;5.090;2022-08-21T10:12:11;20.80;90.40
13606;DHT22;6874;52.084;5.090;2022-08-21T10:14:54;21.00;90.30
13606;DHT22;6874;52.084;5.090;2022-08-21T10:17:59;21.10;90.10
13606;DHT22;6874;52.084;5.090;2022-08-21T10:25:48;21.40;90.00
13606;DHT22;6874;52.084;5.090;2022-08-21T10:28:21;21.50;90.20
13606;DHT22;6874;52.084;5.090;2022-08-21T10:30:54;21.60;89.50
13606;DHT22;6874;52.084;5.090;2022-08-21T10:33:28;21.70;89.40
13606;DHT22;6874;52.084;5.090;2022-08-21T10:41:28;22.00;90.00
13606;DHT22;6874;52.084;5.090;2022-08-21T10:44:14;22.20;89.70
13606;DHT22;6874;52.084;5.090;2022-08-21T10:46:57;22.30;89.80
13606;DHT22;6874;52.084;5.090;2022-08-21T10:55:14;22.90;88.50
13606;DHT22;6874;52.084;5.090;2022-08-21T10:57:54;23.10;87.90
13606;DHT22;6874;52.084;5.090;2022-08-21T11:00:29;23.20;87.00
13606;DHT22;6874;52.084;5.090;2022-08-21T11:03:13;23.40;86.40
13606;DHT22;6874;52.084;5.090;2022-08-21T11:05:51;23.50;85.90
13606;DHT22;6874;52.084;5.090;2022-08-21T11:13:40;23.90;83.40
13606;DHT22;6874;52.084;5.090;2022-08-21T11:16:43;24.00;81.30
13606;DHT22;6874;52.084;5.090;2022-08-21T11:19:13;24.10;81.60
13606;DHT22;6874;52.084;5.090;2022-08-21T11:27:28;24.20;80.10
13606;DHT22;6874;52.084;5.090;2022-08-21T11:58:48;24.70;78.10
13606;DHT22;6874;52.084;5.090;2022-08-21T12:01:22;24.70;78.10
13606;DHT22;6874;52.084;5.090;2022-08-21T12:04:06;24.70;77.10
13606;DHT22;6874;52.084;5.090;2022-08-21T12:06:37;24.80;76.70
13606;DHT22;6874;52.084;5.090;2022-08-21T12:09:10;24.80;76.80
13606;DHT22;6874;52.084;5.090;2022-08-21T12:14:42;24.80;76.50
13606;DHT22;6874;52.084;5.090;2022-08-21T12:17:24;24.90;75.70
13606;DHT22;6874;52.084;5.090;2022-08-21T12:20:14;24.90;75.70
13606;DHT22;6874;52.084;5.090;2022-08-21T12:22:40;24.90;76.10
13606;DHT22;6874;52.084;5.090;2022-08-21T12:25:10;24.90;76.30
13606;DHT22;6874;52.084;5.090;2022-08-21T12:28:02;24.90;76.20
13606;DHT22;6874;52.084;5.090;2022-08-21T12:30:39;24.90;76.50
13606;DHT22;6874;52.084;5.090;2022-08-21T12:33:20;25.00;75.40
13606;DHT22;6874;52.084;5.090;2022-08-21T12:51:19;25.00;74.70
13606;DHT22;6874;52.084;5.090;2022-08-21T13:22:17;25.30;74.50
13606;DHT22;6874;52.084;5.090;2022-08-21T13:24:47;25.30;74.00
13606;DHT22;6874;52.084;5.090;2022-08-21T13:35:06;25.20;73.20
13606;DHT22;6874;52.084;5.090;2022-08-21T13:37:32;25.10;73.20
13606;DHT22;6874;52.084;5.090;2022-08-21T13:39:58;25.10;73.10
13606;DHT22;6874;52.084;5.090;2022-08-21T13:42:23;25.10;73.10
13606;DHT22;6874;52.084;5.090;2022-08-21T13:44:52;25.10;73.10
13606;DHT22;6874;52.084;5.090;2022-08-21T13:47:18;25.10;73.00
13606;DHT22;6874;52.084;5.090;2022-08-21T13:49:46;25.10;74.10
13606;DHT22;6874;52.084;5.090;2022-08-21T13:52:20;25.10;74.10
13606;DHT22;6874;52.084;5.090;2022-08-21T13:54:57;25.10;73.70
13606;DHT22;6874;52.084;5.090;2022-08-21T13:57:29;25.10;73.10
13606;DHT22;6874;52.084;5.090;2022-08-21T14:02:39;25.10;73.90
13606;DHT22;6874;52.084;5.090;2022-08-21T14:05:06;25.20;72.30
13606;DHT22;6874;52.084;5.090;2022-08-21T14:07:33;25.20;73.50
13606;DHT22;6874;52.084;5.090;2022-08-21T14:12:41;25.20;74.10
13606;DHT22;6874;52.084;5.090;2022-08-21T14:15:08;25.20;73.00
13606;DHT22;6874;52.084;5.090;2022-08-21T14:17:37;25.30;73.30
13606;DHT22;6874;52.084;5.090;2022-08-21T14:20:07;25.30;73.90
13606;DHT22;6874;52.084;5.090;2022-08-21T14:22:45;25.40;73.40
13606;DHT22;6874;52.084;5.090;2022-08-21T14:27:45;25.40;73.30
13606;DHT22;6874;52.084;5.090;2022-08-21T14:30:25;25.40;72.90
13606;DHT22;6874;52.084;5.090;2022-08-21T14:32:52;25.40;73.00
13606;DHT22;6874;52.084;5.090;2022-08-21T14:35:18;25.40;73.20
13606;DHT22;6874;52.084;5.090;2022-08-21T14:37:47;25.40;73.40
13606;DHT22;6874;52.084;5.090;2022-08-21T14:40:13;25.40;72.60
13606;DHT22;6874;52.084;5.090;2022-08-21T14:42:41;25.40;70.90
13606;DHT22;6874;52.084;5.090;2022-08-21T14:45:28;25.40;71.70
13606;DHT22;6874;52.084;5.090;2022-08-21T14:47:55;25.30;70.30
13606;DHT22;6874;52.084;5.090;2022-08-21T14:50:21;25.30;69.60
13606;DHT22;6874;52.084;5.090;2022-08-21T14:52:47;25.30;69.80
13606;DHT22;6874;52.084;5.090;2022-08-21T14:55:14;25.20;68.90
13606;DHT22;6874;52.084;5.090;2022-08-21T14:57:42;25.20;69.40
13606;DHT22;6874;52.084;5.090;2022-08-21T15:00:11;25.20;69.70
13606;DHT22;6874;52.084;5.090;2022-08-21T15:02:37;25.20;69.60
13606;DHT22;6874;52.084;5.090;2022-08-21T15:05:04;25.20;69.80
13606;DHT22;6874;52.084;5.090;2022-08-21T15:07:30;25.10;69.40
13606;DHT22;6874;52.084;5.090;2022-08-21T15:09:55;25.10;68.90
13606;DHT22;6874;52.084;5.090;2022-08-21T15:12:21;25.10;69.60
13606;DHT22;6874;52.084;5.090;2022-08-21T15:14:47;25.00;69.50
13606;DHT22;6874;52.084;5.090;2022-08-21T15:17:13;25.00;70.00
13606;DHT22;6874;52.084;5.090;2022-08-21T15:19:39;25.00;69.80
13606;DHT22;6874;52.084;5.090;2022-08-21T15:22:05;24.90;68.40
13606;DHT22;6874;52.084;5.090;2022-08-21T15:24:30;25.00;69.80
13606;DHT22;6874;52.084;5.090;2022-08-21T15:26:58;24.90;69.40
13606;DHT22;6874;52.084;5.090;2022-08-21T15:29:24;24.90;68.80
13606;DHT22;6874;52.084;5.090;2022-08-21T15:31:53;24.90;68.80
13606;DHT22;6874;52.084;5.090;2022-08-21T15:34:20;24.90;68.90
13606;DHT22;6874;52.084;5.090;2022-08-21T15:36:46;24.90;69.40
13606;DHT22;6874;52.084;5.090;2022-08-21T15:39:12;24.80;68.50
13606;DHT22;6874;52.084;5.090;2022-08-21T15:41:37;24.80;68.90
13606;DHT22;6874;52.084;5.090;2022-08-21T15:44:03;24.80;67.70
13606;DHT22;6874;52.084;5.090;2022-08-21T15:46:29;24.70;68.60
13606;DHT22;6874;52.084;5.090;2022-08-21T15:56:38;24.60;68.80
13606;DHT22;6874;52.084;5.090;2022-08-21T16:12:34;24.60;69.90
13606;DHT22;6874;52.084;5.090;2022-08-21T16:15:02;24.60;69.50
13606;DHT22;6874;52.084;5.090;2022-08-21T16:32:58;24.60;70.20
13606;DHT22;6874;52.084;5.090;2022-08-21T16:35:23;24.70;70.70
13606;DHT22;6874;52.084;5.090;2022-08-21T16:37:49;24.60;69.90
13606;DHT22;6874;52.084;5.090;2022-08-21T16:53:06;24.70;70.10
13606;DHT22;6874;52.084;5.090;2022-08-21T16:55:34;24.60;69.50
13606;DHT22;6874;52.084;5.090;2022-08-21T16:58:02;24.60;69.70
13606;DHT22;6874;52.084;5.090;2022-08-21T17:00:29;24.50;69.10
13606;DHT22;6874;52.084;5.090;2022-08-21T17:02:54;24.60;69.40
13606;DHT22;6874;52.084;5.090;2022-08-21T17:05:20;24.50;69.20
13606;DHT22;6874;52.084;5.090;2022-08-21T17:07:46;24.40;68.70
13606;DHT22;6874;52.084;5.090;2022-08-21T17:10:13;24.40;69.30
13606;DHT22;6874;52.084;5.090;2022-08-21T17:12:42;24.40;69.30
13606;DHT22;6874;52.084;5.090;2022-08-21T17:15:19;24.30;69.50
13606;DHT22;6874;52.084;5.090;2022-08-21T17:17:45;24.30;69.30
13606;DHT22;6874;52.084;5.090;2022-08-21T17:20:11;24.30;68.90
13606;DHT22;6874;52.084;5.090;2022-08-21T17:22:37;24.30;69.70
13606;DHT22;6874;52.084;5.090;2022-08-21T17:25:02;24.20;69.50
13606;DHT22;6874;52.084;5.090;2022-08-21T17:27:28;24.20;69.20
13606;DHT22;6874;52.084;5.090;2022-08-21T17:29:54;24.20;69.10
13606;DHT22;6874;52.084;5.090;2022-08-21T17:32:21;24.10;69.70
13606;DHT22;6874;52.084;5.090;2022-08-21T17:34:47;24.10;69.90
13606;DHT22;6874;52.084;5.090;2022-08-21T17:37:14;24.10;69.80
13606;DHT22;6874;52.084;5.090;2022-08-21T17:42:12;24.00;69.70
13606;DHT22;6874;52.084;5.090;2022-08-21T17:44:40;23.90;69.80
13606;DHT22;6874;52.084;5.090;2022-08-21T17:49:48;23.90;69.90
13606;DHT22;6874;52.084;5.090;2022-08-21T17:52:13;23.80;69.70
13606;DHT22;6874;52.084;5.090;2022-08-21T17:54:39;23.80;69.60
13606;DHT22;6874;52.084;5.090;2022-08-21T17:57:06;23.80;69.90
13606;DHT22;6874;52.084;5.090;2022-08-21T17:59:33;23.70;69.90
13606;DHT22;6874;52.084;5.090;2022-08-21T18:01:59;23.70;69.90
13606;DHT22;6874;52.084;5.090;2022-08-21T18:07:02;23.70;70.00
13606;DHT22;6874;52.084;5.090;2022-08-21T18:14:33;23.50;70.20
13606;DHT22;6874;52.084;5.090;2022-08-21T18:17:00;23.60;70.10
13606;DHT22;6874;52.084;5.090;2022-08-21T18:19:25;23.40;70.00
13606;DHT22;6874;52.084;5.090;2022-08-21T18:21:55;23.30;70.10
13606;DHT22;6874;52.084;5.090;2022-08-21T18:24:22;23.30;70.30
13606;DHT22;6874;52.084;5.090;2022-08-21T18:26:48;23.20;70.40
13606;DHT22;6874;52.084;5.090;2022-08-21T18:29:16;23.10;70.30
13606;DHT22;6874;52.084;5.090;2022-08-21T18:31:43;23.00;70.10
13606;DHT22;6874;52.084;5.090;2022-08-21T18:34:27;23.00;70.20
13606;DHT22;6874;52.084;5.090;2022-08-21T18:36:54;22.90;70.30
13606;DHT22;6874;52.084;5.090;2022-08-21T18:39:22;22.80;70.40
13606;DHT22;6874;52.084;5.090;2022-08-21T18:41:48;22.80;70.60
13606;DHT22;6874;52.084;5.090;2022-08-21T18:44:16;22.60;70.40
13606;DHT22;6874;52.084;5.090;2022-08-21T18:46:45;22.60;70.90
13606;DHT22;6874;52.084;5.090;2022-08-21T18:49:12;22.50;71.20
13606;DHT22;6874;52.084;5.090;2022-08-21T18:51:38;22.40;71.40
13606;DHT22;6874;52.084;5.090;2022-08-21T18:54:03;22.40;71.80
13606;DHT22;6874;52.084;5.090;2022-08-21T18:56:29;22.30;71.70
13606;DHT22;6874;52.084;5.090;2022-08-21T18:58:55;22.20;71.70
13606;DHT22;6874;52.084;5.090;2022-08-21T19:01:23;22.20;71.90
13606;DHT22;6874;52.084;5.090;2022-08-21T19:03:49;22.10;72.00
13606;DHT22;6874;52.084;5.090;2022-08-21T19:06:15;22.10;72.00
13606;DHT22;6874;52.084;5.090;2022-08-21T19:16:26;22.10;72.40